Time;durP1;ratioP1;P1;durP2;ratioP2;P2;SDS_P1;SDS_P2;PMS_P1;PMS_P2;Temp;Humidity;BMP_temperature;BMP_pressure;BME280_temperature;BME280_humidity;BME280_pressure;Samples;Min_cycle;Max_cycle;Signal;HPM_P1;HPM_P2
2024/04/03 00:01:41;;;;;;;26.87;24.47;;;;;;;;;;5015346;28;20497;-77
2024/04/03 00:04:07;;;;;;;26.63;24.33;;;;;;;;;;5015550;28;20493;-77
2024/04/03 00:06:34;;;;;;;26.60;23.90;;;;;;;;;;5015337;28;20448;-77
2024/04/03 00:09:00;;;;;;;27.30;24.70;;;;;;;;;;5014416;28;20955;-77
2024/04/03 00:11:29;;;;;;;27.40;24.80;;;;;;;;;;5014954;28;20447;-78
2024/04/03 00:13:55;;;;;;;27.20;24.90;;;;;;;;;;5015133;28;20484;-77
2024/04/03 00:16:23;;;;;;;26.77;24.47;;;;;;;;;;5014426;28;20537;-77
2024/04/03 00:18:49;;;;;;;25.60;23.47;;;;;;;;;;5014417;28;20907;-77
2024/04/03 00:21:16;;;;;;;27.63;25.47;;;;;;;;;;5014828;28;20484;-77
2024/04/03 00:23:42;;;;;;;27.47;24.67;;;;;;;;;;5015023;28;20444;-77
2024/04/03 00:26:09;;;;;;;25.13;22.67;;;;;;;;;;5015423;28;20457;-78
2024/04/03 00:28:35;;;;;;;24.47;22.43;;;;;;;;;;5014795;28;20430;-77
2024/04/03 00:31:02;;;;;;;24.17;22.07;;;;;;;;;;5030974;28;20449;-76
2024/04/03 00:33:30;;;;;;;24.27;22.27;;;;;;;;;;5034600;28;20424;-76
2024/04/03 00:35:57;;;;;;;25.50;23.33;;;;;;;;;;5034334;28;20446;-77
2024/04/03 00:38:23;;;;;;;24.13;22.07;;;;;;;;;;5034247;28;20418;-76
2024/04/03 00:41:00;;;;;;;24.30;22.70;;;;;;;;;;5034767;28;20495;-77
2024/04/03 00:43:27;;;;;;;23.90;22.03;;;;;;;;;;5034297;28;21001;-77
2024/04/03 00:45:54;;;;;;;23.30;21.50;;;;;;;;;;5034368;28;20446;-77
2024/04/03 00:48:20;;;;;;;23.60;21.90;;;;;;;;;;5027594;28;21041;-77
2024/04/03 00:50:49;;;;;;;25.10;22.87;;;;;;;;;;5014256;28;20475;-77
2024/04/03 00:53:16;;;;;;;24.50;22.70;;;;;;;;;;5014192;28;20426;-78
2024/04/03 00:55:44;;;;;;;24.90;22.43;;;;;;;;;;5014367;28;20911;-77
2024/04/03 00:58:10;;;;;;;24.23;22.20;;;;;;;;;;5013295;28;21338;-77
2024/04/03 01:00:37;;;;;;;24.17;22.30;;;;;;;;;;5014288;28;20445;-77
2024/04/03 01:03:04;;;;;;;24.83;23.20;;;;;;;;;;5014064;28;20480;-77
2024/04/03 01:05:31;;;;;;;25.57;23.87;;;;;;;;;;5014609;28;20459;-77
2024/04/03 01:07:59;;;;;;;25.27;22.77;;;;;;;;;;5014057;28;20446;-78
2024/04/03 01:10:26;;;;;;;25.13;23.03;;;;;;;;;;5013921;28;20453;-76
2024/04/03 01:12:54;;;;;;;24.53;22.83;;;;;;;;;;5014436;28;20453;-77
2024/04/03 01:15:21;;;;;;;25.30;23.13;;;;;;;;;;5014532;28;20461;-78
2024/04/03 01:17:47;;;;;;;24.33;21.90;;;;;;;;;;5013943;28;20440;-77
2024/04/03 01:20:16;;;;;;;23.50;21.70;;;;;;;;;;5012989;28;20464;-76
2024/04/03 01:22:42;;;;;;;24.20;22.23;;;;;;;;;;5013844;28;20460;-76
2024/04/03 01:25:10;;;;;;;23.63;21.93;;;;;;;;;;5014180;28;20457;-77
2024/04/03 01:27:36;;;;;;;24.50;22.23;;;;;;;;;;5014192;28;20435;-77
2024/04/03 01:30:03;;;;;;;24.13;22.33;;;;;;;;;;5016418;28;20458;-77
2024/04/03 01:32:29;;;;;;;23.90;22.07;;;;;;;;;;5033965;28;20438;-77
2024/04/03 01:34:56;;;;;;;25.70;22.47;;;;;;;;;;5034187;28;20483;-76
2024/04/03 01:37:22;;;;;;;25.03;22.80;;;;;;;;;;5033718;28;20478;-76
2024/04/03 01:39:49;;;;;;;24.00;22.27;;;;;;;;;;5033599;28;20482;-76
2024/04/03 01:42:17;;;;;;;24.20;22.30;;;;;;;;;;5032960;28;20914;-77
2024/04/03 01:44:44;;;;;;;25.50;23.33;;;;;;;;;;5033462;28;20572;-77
2024/04/03 01:47:10;;;;;;;25.17;23.23;;;;;;;;;;5033310;28;20483;-77
2024/04/03 01:49:37;;;;;;;25.80;23.80;;;;;;;;;;5032889;28;20476;-76
2024/04/03 01:52:04;;;;;;;26.27;24.00;;;;;;;;;;5032338;28;20533;-76
2024/04/03 01:54:31;;;;;;;25.20;23.20;;;;;;;;;;5032816;28;20438;-75
2024/04/03 01:56:57;;;;;;;24.87;22.97;;;;;;;;;;5033067;28;20918;-76
2024/04/03 01:59:26;;;;;;;26.17;23.77;;;;;;;;;;5028431;28;20479;-76
2024/04/03 02:01:52;;;;;;;25.50;23.50;;;;;;;;;;5031398;28;20488;-77
2024/04/03 02:04:18;;;;;;;24.57;22.67;;;;;;;;;;5033023;28;20485;-77
2024/04/03 02:06:44;;;;;;;24.63;22.43;;;;;;;;;;5032935;28;20498;-77
2024/04/03 02:09:11;;;;;;;22.20;20.60;;;;;;;;;;5032390;28;20439;-76
2024/04/03 02:11:37;;;;;;;22.83;21.03;;;;;;;;;;5032264;28;20460;-76
2024/04/03 02:14:06;;;;;;;24.10;22.40;;;;;;;;;;5033065;28;20940;-76
2024/04/03 02:16:34;;;;;;;25.23;22.87;;;;;;;;;;5033095;28;20450;-76
2024/04/03 02:19:01;;;;;;;23.83;22.23;;;;;;;;;;5032762;28;20961;-76
2024/04/03 02:21:27;;;;;;;23.87;22.23;;;;;;;;;;5032309;28;20784;-76
2024/04/03 02:23:53;;;;;;;23.80;21.90;;;;;;;;;;5033033;28;20545;-77
2024/04/03 02:26:19;;;;;;;26.77;24.80;;;;;;;;;;5032594;28;20445;-77
2024/04/03 02:28:46;;;;;;;28.33;26.10;;;;;;;;;;5032462;28;20452;-77
2024/04/03 02:31:12;;;;;;;32.00;29.20;;;;;;;;;;5026686;28;20471;-78
2024/04/03 02:33:41;;;;;;;32.50;30.03;;;;;;;;;;5032418;28;20495;-77
2024/04/03 02:36:10;;;;;;;34.00;31.47;;;;;;;;;;5032941;28;20447;-75
2024/04/03 02:38:37;;;;;;;36.83;33.97;;;;;;;;;;5032098;28;20519;-77
2024/04/03 02:41:03;;;;;;;38.50;35.23;;;;;;;;;;5031777;28;20483;-77
2024/04/03 02:43:31;;;;;;;37.77;34.77;;;;;;;;;;5032589;28;21007;-76
2024/04/03 02:45:57;;;;;;;39.27;36.53;;;;;;;;;;5032930;28;20447;-76
2024/04/03 02:48:24;;;;;;;39.93;37.00;;;;;;;;;;5031617;28;20449;-77
2024/04/03 02:50:59;;;;;;;42.47;39.00;;;;;;;;;;5032446;28;20525;-77
2024/04/03 02:53:26;;;;;;;45.37;41.87;;;;;;;;;;5032818;28;20479;-76
2024/04/03 02:55:52;;;;;;;47.03;42.97;;;;;;;;;;5033567;28;20509;-76
2024/04/03 02:58:19;;;;;;;45.53;42.33;;;;;;;;;;5032119;28;20930;-76
2024/04/03 03:00:45;;;;;;;47.67;44.00;;;;;;;;;;5031521;28;20499;-77
2024/04/03 03:03:13;;;;;;;52.90;48.50;;;;;;;;;;5032391;28;20512;-76
2024/04/03 03:05:39;;;;;;;54.27;50.30;;;;;;;;;;5032153;28;20454;-76
2024/04/03 03:08:08;;;;;;;55.63;51.53;;;;;;;;;;5031773;28;20539;-76
2024/04/03 03:10:34;;;;;;;58.27;53.80;;;;;;;;;;5032307;28;20447;-77
2024/04/03 03:13:01;;;;;;;53.50;49.30;;;;;;;;;;5032339;28;20497;-76
2024/04/03 03:15:27;;;;;;;61.00;55.97;;;;;;;;;;5032117;28;20505;-76
2024/04/03 03:17:54;;;;;;;57.90;53.27;;;;;;;;;;5032220;28;20450;-77
2024/04/03 03:20:20;;;;;;;58.97;54.77;;;;;;;;;;5031591;28;20481;-78
2024/04/03 03:22:48;;;;;;;61.37;56.77;;;;;;;;;;5031561;28;20519;-76
2024/04/03 03:25:15;;;;;;;59.50;53.97;;;;;;;;;;5032399;28;20419;-77
2024/04/03 03:27:42;;;;;;;56.73;52.53;;;;;;;;;;5032023;28;20455;-76
2024/04/03 03:30:08;;;;;;;59.27;54.77;;;;;;;;;;5030025;28;20467;-76
2024/04/03 03:32:35;;;;;;;59.97;55.10;;;;;;;;;;5030715;28;21042;-78
2024/04/03 03:35:01;;;;;;;60.90;55.93;;;;;;;;;;5031964;28;20453;-76
2024/04/03 03:37:28;;;;;;;63.67;57.97;;;;;;;;;;5032197;28;20451;-76
2024/04/03 03:39:55;;;;;;;60.33;55.57;;;;;;;;;;5031256;28;21323;-77
2024/04/03 03:42:24;;;;;;;62.47;57.37;;;;;;;;;;5032107;28;20494;-77
2024/04/03 03:44:51;;;;;;;60.00;55.00;;;;;;;;;;5032275;28;20451;-77
2024/04/03 03:47:17;;;;;;;63.17;56.87;;;;;;;;;;5031893;28;21005;-76
2024/04/03 03:52:37;;;;;;;60.80;55.93;;;;;;;;;;5026324;28;20445;-77
2024/04/03 03:55:04;;;;;;;70.00;63.13;;;;;;;;;;5011991;28;20448;-76
2024/04/03 03:57:33;;;;;;;67.73;61.60;;;;;;;;;;5012278;28;20486;-76
2024/04/03 04:00:00;;;;;;;66.60;60.30;;;;;;;;;;5015217;28;20503;-77
2024/04/03 04:02:27;;;;;;;67.67;61.90;;;;;;;;;;5023098;28;20501;-77
2024/04/03 04:04:54;;;;;;;67.40;61.47;;;;;;;;;;5031851;28;20452;-77
2024/04/03 04:07:21;;;;;;;71.47;64.43;;;;;;;;;;5032060;28;20456;-76
2024/04/03 04:09:48;;;;;;;69.40;63.50;;;;;;;;;;5031853;28;20455;-77
2024/04/03 04:12:15;;;;;;;66.97;60.73;;;;;;;;;;5031991;28;20523;-77
2024/04/03 04:14:47;;;;;;;68.37;62.97;;;;;;;;;;5032298;28;20448;-76
2024/04/03 04:17:15;;;;;;;70.10;64.00;;;;;;;;;;5032010;28;20475;-77
2024/04/03 04:19:41;;;;;;;63.97;58.87;;;;;;;;;;5031505;28;20452;-76
2024/04/03 04:22:09;;;;;;;70.77;64.73;;;;;;;;;;5031121;28;20479;-76
2024/04/03 04:24:36;;;;;;;64.00;59.13;;;;;;;;;;5031813;28;20511;-76
2024/04/03 04:27:05;;;;;;;64.10;59.13;;;;;;;;;;5031866;28;20463;-77
2024/04/03 04:29:31;;;;;;;62.47;57.60;;;;;;;;;;5031377;28;20526;-77
2024/04/03 04:31:59;;;;;;;61.13;56.17;;;;;;;;;;5031727;28;20463;-77
2024/04/03 04:34:26;;;;;;;62.00;57.00;;;;;;;;;;5031650;28;20483;-76
2024/04/03 04:36:53;;;;;;;63.77;58.57;;;;;;;;;;5032032;28;20452;-78
2024/04/03 04:39:19;;;;;;;59.00;54.43;;;;;;;;;;5031228;28;20808;-77
2024/04/03 04:41:49;;;;;;;64.13;58.83;;;;;;;;;;5031405;28;20475;-76
2024/04/03 04:44:15;;;;;;;63.93;58.87;;;;;;;;;;5033027;28;20545;-77
2024/04/03 04:46:42;;;;;;;81.07;75.23;;;;;;;;;;5035234;28;20447;-77
2024/04/03 04:49:09;;;;;;;79.83;74.50;;;;;;;;;;5034822;28;20818;-77
2024/04/03 04:51:36;;;;;;;79.03;73.70;;;;;;;;;;5035134;28;20512;-76
2024/04/03 04:54:02;;;;;;;77.40;71.47;;;;;;;;;;5027809;28;20982;-73
2024/04/03 04:56:29;;;;;;;72.23;67.73;;;;;;;;;;5013808;28;20463;-75
2024/04/03 04:58:55;;;;;;;73.00;68.20;;;;;;;;;;5012906;28;20442;-74
2024/04/03 05:01:22;;;;;;;71.43;66.63;;;;;;;;;;5013779;28;20477;-74
2024/04/03 05:03:48;;;;;;;76.03;70.93;;;;;;;;;;5013628;28;20543;-75
2024/04/03 05:06:18;;;;;;;73.23;68.03;;;;;;;;;;5013400;28;20452;-74
2024/04/03 05:08:45;;;;;;;76.60;71.00;;;;;;;;;;5012900;28;20798;-74
2024/04/03 05:11:12;;;;;;;69.40;64.50;;;;;;;;;;5013480;28;20455;-73
2024/04/03 05:13:38;;;;;;;76.77;71.03;;;;;;;;;;5013440;28;20502;-74
2024/04/03 05:16:06;;;;;;;74.97;70.03;;;;;;;;;;5012831;28;20476;-75
2024/04/03 05:18:32;;;;;;;73.57;68.73;;;;;;;;;;5028865;28;20439;-75
2024/04/03 05:20:59;;;;;;;73.80;69.00;;;;;;;;;;5033219;28;20475;-75
2024/04/03 05:23:26;;;;;;;75.80;70.30;;;;;;;;;;5033149;28;20990;-74
2024/04/03 05:25:57;;;;;;;75.10;69.90;;;;;;;;;;5033632;28;20498;-74
2024/04/03 05:28:23;;;;;;;80.13;74.10;;;;;;;;;;5032634;28;20436;-74
2024/04/03 05:30:50;;;;;;;75.70;70.20;;;;;;;;;;5033090;28;20446;-74
2024/04/03 05:33:16;;;;;;;79.20;73.67;;;;;;;;;;5032851;28;20976;-75
2024/04/03 05:35:43;;;;;;;76.27;70.60;;;;;;;;;;5032593;28;20994;-74
2024/04/03 05:38:09;;;;;;;77.70;72.20;;;;;;;;;;5031955;28;20978;-75
2024/04/03 05:40:38;;;;;;;80.07;73.70;;;;;;;;;;5032459;28;20440;-74
2024/04/03 05:43:04;;;;;;;80.30;74.30;;;;;;;;;;5032656;28;20539;-75
2024/04/03 05:45:31;;;;;;;74.90;69.23;;;;;;;;;;5032725;28;20898;-75
2024/04/03 05:47:58;;;;;;;75.87;70.43;;;;;;;;;;5032459;28;20448;-78
2024/04/03 05:50:25;;;;;;;75.43;70.07;;;;;;;;;;5031950;28;21010;-74
2024/04/03 05:52:52;;;;;;;77.30;71.60;;;;;;;;;;5031791;28;20446;-75
2024/04/03 05:55:19;;;;;;;74.67;70.07;;;;;;;;;;5031377;28;20495;-74
2024/04/03 05:57:46;;;;;;;78.07;72.90;;;;;;;;;;5032273;28;21002;-75
2024/04/03 06:00:13;;;;;;;73.30;67.83;;;;;;;;;;5031781;28;20576;-74
2024/04/03 06:02:39;;;;;;;73.37;67.90;;;;;;;;;;5031677;28;20600;-74
2024/04/03 06:05:06;;;;;;;75.97;70.57;;;;;;;;;;5032407;28;21121;-75
2024/04/03 06:07:33;;;;;;;70.60;65.60;;;;;;;;;;5022885;28;20456;-73
2024/04/03 06:10:00;;;;;;;74.27;68.97;;;;;;;;;;5011649;28;20452;-74
2024/04/03 06:12:27;;;;;;;77.17;70.30;;;;;;;;;;5012251;28;20472;-74
2024/04/03 06:14:56;;;;;;;69.90;65.10;;;;;;;;;;5018183;28;20475;-74
2024/04/03 06:17:22;;;;;;;70.77;65.10;;;;;;;;;;5017614;28;20786;-74
2024/04/03 06:19:49;;;;;;;68.37;63.77;;;;;;;;;;5031956;28;20454;-74
2024/04/03 06:22:15;;;;;;;68.10;63.30;;;;;;;;;;5031398;28;20479;-73
2024/04/03 06:24:42;;;;;;;71.80;66.60;;;;;;;;;;5031437;28;20932;-73
2024/04/03 06:27:08;;;;;;;71.03;66.43;;;;;;;;;;5030841;28;20857;-73
2024/04/03 06:29:35;;;;;;;68.07;63.20;;;;;;;;;;5031196;28;20512;-74
2024/04/03 06:32:04;;;;;;;67.00;62.53;;;;;;;;;;5031161;28;20922;-74
2024/04/03 06:34:30;;;;;;;62.17;57.97;;;;;;;;;;5031703;28;20488;-73
2024/04/03 06:36:56;;;;;;;67.50;62.63;;;;;;;;;;5030739;28;20443;-75
2024/04/03 06:39:23;;;;;;;65.67;61.43;;;;;;;;;;5030924;28;20499;-74
2024/04/03 06:41:50;;;;;;;71.80;67.00;;;;;;;;;;5031491;28;20450;-74
2024/04/03 06:44:17;;;;;;;66.40;61.60;;;;;;;;;;5031434;28;20532;-73
2024/04/03 06:46:44;;;;;;;69.03;64.20;;;;;;;;;;5031471;28;20444;-75
2024/04/03 06:49:13;;;;;;;69.87;65.10;;;;;;;;;;5030875;28;20513;-75
2024/04/03 06:51:39;;;;;;;68.27;63.27;;;;;;;;;;5031792;28;20471;-75
2024/04/03 06:54:07;;;;;;;62.73;58.67;;;;;;;;;;5031260;28;20456;-75
2024/04/03 06:56:33;;;;;;;66.53;62.17;;;;;;;;;;5028197;28;20523;-75
2024/04/03 06:59:00;;;;;;;68.80;64.23;;;;;;;;;;5016769;28;20473;-74
2024/04/03 07:01:26;;;;;;;65.57;61.67;;;;;;;;;;5010760;28;20961;-81
2024/04/03 07:03:53;;;;;;;62.03;57.80;;;;;;;;;;5011018;28;20539;-74
2024/04/03 07:06:21;;;;;;;59.97;56.43;;;;;;;;;;5011974;28;20453;-73
2024/04/03 07:08:49;;;;;;;60.90;57.20;;;;;;;;;;5010840;28;20564;-74
2024/04/03 07:11:15;;;;;;;61.87;57.97;;;;;;;;;;5010320;28;20496;-78
2024/04/03 07:13:42;;;;;;;59.40;55.70;;;;;;;;;;5011104;28;20440;-73
2024/04/03 07:16:08;;;;;;;59.20;55.60;;;;;;;;;;5011253;28;20452;-74
2024/04/03 07:18:39;;;;;;;62.97;59.07;;;;;;;;;;5010633;28;20467;-75
2024/04/03 07:21:05;;;;;;;58.90;55.30;;;;;;;;;;5010213;28;20493;-74
2024/04/03 07:23:33;;;;;;;57.80;54.20;;;;;;;;;;5010323;28;20476;-74
2024/04/03 07:25:59;;;;;;;57.80;54.13;;;;;;;;;;5011006;28;20444;-84
2024/04/03 07:28:27;;;;;;;56.67;53.30;;;;;;;;;;5028671;28;20464;-74
2024/04/03 07:30:54;;;;;;;55.47;52.20;;;;;;;;;;5023701;28;20840;-74
2024/04/03 07:33:21;;;;;;;57.03;53.50;;;;;;;;;;5014249;28;20444;-73
2024/04/03 07:35:47;;;;;;;58.13;54.83;;;;;;;;;;5012799;28;20483;-75
2024/04/03 07:38:14;;;;;;;55.10;51.43;;;;;;;;;;5010535;28;20456;-73
2024/04/03 07:40:44;;;;;;;57.10;53.80;;;;;;;;;;5010856;28;20579;-73
2024/04/03 07:43:11;;;;;;;57.57;54.07;;;;;;;;;;5010996;28;20469;-73
2024/04/03 07:45:37;;;;;;;53.30;50.13;;;;;;;;;;5010121;28;20503;-74
2024/04/03 07:48:04;;;;;;;53.27;50.40;;;;;;;;;;5010653;28;20455;-74
2024/04/03 07:50:31;;;;;;;52.90;49.80;;;;;;;;;;5015870;28;21006;-73
2024/04/03 07:52:58;;;;;;;53.73;50.47;;;;;;;;;;5025863;28;20456;-73
2024/04/03 07:55:24;;;;;;;53.87;50.90;;;;;;;;;;5029887;28;20850;-74
2024/04/03 07:57:52;;;;;;;56.90;53.43;;;;;;;;;;5030638;28;20452;-75
2024/04/03 08:00:18;;;;;;;57.57;54.50;;;;;;;;;;5029533;28;20506;-75
2024/04/03 08:02:45;;;;;;;54.13;51.13;;;;;;;;;;5029194;28;20483;-74
2024/04/03 08:05:12;;;;;;;55.03;51.90;;;;;;;;;;5029961;28;20809;-73
2024/04/03 08:07:39;;;;;;;55.43;52.37;;;;;;;;;;5029566;28;20427;-74
2024/04/03 08:10:06;;;;;;;53.50;50.30;;;;;;;;;;5012703;28;20461;-74
2024/04/03 08:12:34;;;;;;;53.53;50.07;;;;;;;;;;5009744;28;20479;-74
2024/04/03 08:15:01;;;;;;;52.07;49.37;;;;;;;;;;5015426;28;20443;-75
2024/04/03 08:17:29;;;;;;;48.97;46.37;;;;;;;;;;5030061;28;20958;-75
2024/04/03 08:19:56;;;;;;;53.13;50.03;;;;;;;;;;5032068;28;20547;-74
2024/04/03 08:22:23;;;;;;;54.03;50.93;;;;;;;;;;5045464;28;20450;-74
2024/04/03 08:24:49;;;;;;;53.40;50.57;;;;;;;;;;5054488;28;20573;-75
2024/04/03 08:27:16;;;;;;;52.93;49.87;;;;;;;;;;5054004;28;20421;-73
2024/04/03 08:29:43;;;;;;;50.97;48.13;;;;;;;;;;5053414;28;20964;-74
2024/04/03 08:32:11;;;;;;;51.23;48.47;;;;;;;;;;5053195;28;20457;-75
2024/04/03 08:34:37;;;;;;;52.47;49.67;;;;;;;;;;5053808;28;20440;-73
2024/04/03 08:37:05;;;;;;;51.20;48.50;;;;;;;;;;5053727;28;20444;-75
2024/04/03 08:39:31;;;;;;;51.30;48.50;;;;;;;;;;5053018;28;20438;-74
2024/04/03 08:41:58;;;;;;;49.20;46.30;;;;;;;;;;5053222;28;20473;-74
2024/04/03 08:44:25;;;;;;;51.60;48.80;;;;;;;;;;5053543;28;21010;-74
2024/04/03 08:46:55;;;;;;;50.30;47.40;;;;;;;;;;5053575;28;20433;-73
2024/04/03 08:49:23;;;;;;;52.87;49.67;;;;;;;;;;5032340;28;20451;-75
2024/04/03 08:51:54;;;;;;;50.30;47.20;;;;;;;;;;5033090;28;20953;-74
2024/04/03 08:54:21;;;;;;;50.80;47.53;;;;;;;;;;5033063;28;20492;-74
2024/04/03 08:56:51;;;;;;;50.90;47.90;;;;;;;;;;5033198;28;20934;-75
2024/04/03 08:59:17;;;;;;;51.87;49.03;;;;;;;;;;5033415;28;20438;-74
2024/04/03 09:01:44;;;;;;;51.40;48.30;;;;;;;;;;5022271;28;20941;-73
2024/04/03 09:04:10;;;;;;;48.27;45.53;;;;;;;;;;5012945;28;20485;-75
2024/04/03 09:06:41;;;;;;;51.27;48.30;;;;;;;;;;5013287;28;20444;-74
2024/04/03 09:09:15;;;;;;;53.27;49.90;;;;;;;;;;5012776;28;20534;-74
2024/04/03 09:11:42;;;;;;;50.47;47.40;;;;;;;;;;5012661;28;20580;-74
2024/04/03 09:14:08;;;;;;;49.00;46.20;;;;;;;;;;5012606;28;20501;-73
2024/04/03 09:16:35;;;;;;;47.33;44.57;;;;;;;;;;5012898;28;20453;-74
2024/04/03 09:19:05;;;;;;;47.63;45.10;;;;;;;;;;5020051;28;20456;-74
2024/04/03 09:21:32;;;;;;;48.80;46.10;;;;;;;;;;5032619;28;20471;-74
2024/04/03 09:23:59;;;;;;;49.63;46.90;;;;;;;;;;5030048;28;20503;-75
2024/04/03 09:26:26;;;;;;;45.63;43.20;;;;;;;;;;5013326;28;20504;-74
2024/04/03 09:28:59;;;;;;;45.73;43.37;;;;;;;;;;5012498;28;20416;-75
2024/04/03 09:31:26;;;;;;;44.17;42.03;;;;;;;;;;5014888;28;20446;-74
2024/04/03 09:33:53;;;;;;;43.27;41.17;;;;;;;;;;5021055;28;20975;-74
2024/04/03 09:36:21;;;;;;;42.07;40.03;;;;;;;;;;5012808;28;20455;-74
2024/04/03 09:38:47;;;;;;;43.60;41.30;;;;;;;;;;5012359;28;20459;-74
2024/04/03 09:41:16;;;;;;;40.40;38.50;;;;;;;;;;5012361;28;20967;-75
2024/04/03 09:43:43;;;;;;;41.83;39.73;;;;;;;;;;5011997;28;20528;-73
2024/04/03 09:46:13;;;;;;;39.63;37.50;;;;;;;;;;5012431;28;20531;-74
2024/04/03 09:48:39;;;;;;;40.53;38.40;;;;;;;;;;5011974;28;20430;-74
2024/04/03 09:51:06;;;;;;;36.30;34.50;;;;;;;;;;5017275;28;20472;-75
2024/04/03 09:53:33;;;;;;;37.70;35.90;;;;;;;;;;5032871;28;21002;-78
2024/04/03 09:56:00;;;;;;;36.70;34.83;;;;;;;;;;5027584;28;20469;-74
2024/04/03 09:58:27;;;;;;;38.07;36.07;;;;;;;;;;5015843;28;20498;-74
2024/04/03 10:00:55;;;;;;;35.97;34.27;;;;;;;;;;5025242;28;20507;-73
2024/04/03 10:03:22;;;;;;;35.53;33.40;;;;;;;;;;5031798;28;20447;-73
2024/04/03 10:05:49;;;;;;;36.13;34.33;;;;;;;;;;5032181;28;20543;-75
2024/04/03 10:08:17;;;;;;;37.60;35.70;;;;;;;;;;5023053;28;20550;-74
2024/04/03 10:10:45;;;;;;;34.97;33.07;;;;;;;;;;5021242;28;20464;-74
2024/04/03 10:13:12;;;;;;;33.90;32.20;;;;;;;;;;5031746;28;20453;-74
2024/04/03 10:15:41;;;;;;;33.97;31.97;;;;;;;;;;5031690;28;20422;-75
2024/04/03 10:18:07;;;;;;;33.03;31.37;;;;;;;;;;5030834;28;20451;-74
2024/04/03 10:20:38;;;;;;;35.27;33.13;;;;;;;;;;5031606;28;20453;-75
2024/04/03 10:23:05;;;;;;;29.77;28.17;;;;;;;;;;5017362;28;20566;-74
2024/04/03 10:25:32;;;;;;;29.53;27.77;;;;;;;;;;5011490;28;20848;-75
2024/04/03 10:27:58;;;;;;;27.10;25.40;;;;;;;;;;5011867;28;20449;-74
2024/04/03 10:30:25;;;;;;;28.43;26.80;;;;;;;;;;5022975;28;20477;-74
2024/04/03 10:32:53;;;;;;;26.70;25.40;;;;;;;;;;5031149;28;20948;-73
2024/04/03 10:35:20;;;;;;;28.13;26.40;;;;;;;;;;5031693;28;20443;-74
2024/04/03 10:37:46;;;;;;;27.63;26.03;;;;;;;;;;5031511;28;20519;-74
2024/04/03 10:40:13;;;;;;;25.57;24.07;;;;;;;;;;5031150;28;20425;-75
2024/04/03 10:42:39;;;;;;;26.93;25.63;;;;;;;;;;5016122;28;20536;-74
2024/04/03 10:45:08;;;;;;;25.63;24.20;;;;;;;;;;5010924;28;20538;-74
2024/04/03 10:47:34;;;;;;;24.53;23.33;;;;;;;;;;5011900;28;20458;-74
2024/04/03 10:50:02;;;;;;;30.80;29.20;;;;;;;;;;5011003;28;20446;-75
2024/04/03 10:52:29;;;;;;;27.10;25.40;;;;;;;;;;5011534;28;20466;-75
2024/04/03 10:54:57;;;;;;;29.10;27.50;;;;;;;;;;5011426;28;20463;-74
2024/04/03 10:57:23;;;;;;;31.70;30.10;;;;;;;;;;5010310;28;20473;-75
2024/04/03 10:59:50;;;;;;;32.67;30.90;;;;;;;;;;5010621;28;20582;-73
2024/04/03 11:02:16;;;;;;;31.23;29.70;;;;;;;;;;5009949;28;20493;-74
2024/04/03 11:04:45;;;;;;;30.83;28.93;;;;;;;;;;5010507;28;20480;-72
2024/04/03 11:07:15;;;;;;;20.97;19.90;;;;;;;;;;5010776;28;20450;-75
2024/04/03 11:09:42;;;;;;;22.50;21.10;;;;;;;;;;5010001;28;20453;-74
2024/04/03 11:12:10;;;;;;;22.17;20.80;;;;;;;;;;5014014;28;20546;-73
2024/04/03 11:14:37;;;;;;;21.30;20.20;;;;;;;;;;5030335;28;20475;-74
2024/04/03 11:17:07;;;;;;;21.10;20.10;;;;;;;;;;5030854;28;20424;-73
2024/04/03 11:19:34;;;;;;;20.50;19.50;;;;;;;;;;5029774;28;20467;-74
2024/04/03 11:22:00;;;;;;;21.50;19.87;;;;;;;;;;5030784;28;20518;-73
2024/04/03 11:24:28;;;;;;;19.73;18.63;;;;;;;;;;5030657;28;20477;-74
2024/04/03 11:26:54;;;;;;;19.47;18.57;;;;;;;;;;5031002;28;20449;-74
2024/04/03 11:29:30;;;;;;;18.97;18.00;;;;;;;;;;5029527;28;20519;-73
2024/04/03 11:31:56;;;;;;;19.23;18.23;;;;;;;;;;5030079;28;20464;-75
2024/04/03 11:34:24;;;;;;;17.97;17.17;;;;;;;;;;5029523;28;20444;-75
2024/04/03 11:36:50;;;;;;;17.57;16.70;;;;;;;;;;5030053;28;20948;-74
2024/04/03 11:39:20;;;;;;;18.07;17.17;;;;;;;;;;5029604;28;20472;-74
2024/04/03 11:41:47;;;;;;;16.70;15.90;;;;;;;;;;5029779;28;20867;-75
2024/04/03 11:44:15;;;;;;;16.90;15.90;;;;;;;;;;5029866;28;20502;-74
2024/04/03 11:46:41;;;;;;;16.33;15.63;;;;;;;;;;5029955;28;20482;-74
2024/04/03 11:49:08;;;;;;;17.23;16.23;;;;;;;;;;5029065;28;20452;-74
2024/04/03 11:51:34;;;;;;;16.73;15.93;;;;;;;;;;5029662;28;20994;-76
2024/04/03 11:54:02;;;;;;;15.73;15.03;;;;;;;;;;5031126;28;20508;-74
2024/04/03 11:56:29;;;;;;;17.00;16.20;;;;;;;;;;5034232;28;21104;-74
2024/04/03 11:58:58;;;;;;;16.80;15.90;;;;;;;;;;5033930;28;20851;-73
2024/04/03 12:01:24;;;;;;;17.43;16.53;;;;;;;;;;5034057;28;20866;-75
2024/04/03 12:03:51;;;;;;;17.13;16.20;;;;;;;;;;5033461;28;20632;-74
2024/04/03 12:06:17;;;;;;;16.90;15.93;;;;;;;;;;5033077;28;20924;-74
2024/04/03 12:08:48;;;;;;;16.27;15.57;;;;;;;;;;5033016;28;20448;-74
2024/04/03 12:11:14;;;;;;;16.93;16.03;;;;;;;;;;5033746;28;20595;-76
2024/04/03 12:13:41;;;;;;;17.03;16.13;;;;;;;;;;5033889;28;20452;-73
2024/04/03 12:16:10;;;;;;;16.93;16.13;;;;;;;;;;5033049;28;20467;-74
2024/04/03 12:18:48;;;;;;;16.97;16.17;;;;;;;;;;5033526;28;20490;-74
2024/04/03 12:21:14;;;;;;;16.87;16.07;;;;;;;;;;5034059;28;20555;-74
2024/04/03 12:23:42;;;;;;;17.40;16.50;;;;;;;;;;5033846;28;20538;-75
2024/04/03 12:26:08;;;;;;;17.40;16.50;;;;;;;;;;5032391;28;21102;-74
2024/04/03 12:28:34;;;;;;;17.60;16.70;;;;;;;;;;5032237;28;20427;-74
2024/04/03 12:31:00;;;;;;;17.10;16.30;;;;;;;;;;5033346;28;20504;-74
2024/04/03 12:33:29;;;;;;;17.57;16.67;;;;;;;;;;5033596;28;20640;-74
2024/04/03 12:35:55;;;;;;;18.67;17.67;;;;;;;;;;5032866;28;20942;-75
2024/04/03 12:38:22;;;;;;;17.67;16.80;;;;;;;;;;5021288;28;20424;-75
2024/04/03 12:40:48;;;;;;;18.37;17.50;;;;;;;;;;5013359;28;20468;-73
2024/04/03 12:43:15;;;;;;;17.83;16.90;;;;;;;;;;5013456;28;20422;-74
2024/04/03 12:45:42;;;;;;;18.63;17.73;;;;;;;;;;5013602;28;20463;-75
2024/04/03 12:48:10;;;;;;;19.33;18.33;;;;;;;;;;5012165;28;20517;-74
2024/04/03 12:50:38;;;;;;;18.83;17.73;;;;;;;;;;5013287;28;20419;-75
2024/04/03 12:53:05;;;;;;;19.27;18.27;;;;;;;;;;5013498;28;20540;-73
2024/04/03 12:55:31;;;;;;;18.77;17.77;;;;;;;;;;5012772;28;20479;-74
2024/04/03 12:57:58;;;;;;;18.83;17.40;;;;;;;;;;5012964;28;20439;-75
2024/04/03 13:00:24;;;;;;;17.20;16.40;;;;;;;;;;5012668;28;20449;-74
2024/04/03 13:02:51;;;;;;;17.50;16.77;;;;;;;;;;5013021;28;20444;-74
2024/04/03 13:05:17;;;;;;;17.67;16.47;;;;;;;;;;5013102;28;20468;-73
2024/04/03 13:07:46;;;;;;;16.67;15.97;;;;;;;;;;5012927;28;20871;-75
2024/04/03 13:10:12;;;;;;;17.93;17.13;;;;;;;;;;5012576;28;20499;-74
2024/04/03 13:12:39;;;;;;;17.40;16.60;;;;;;;;;;5012765;28;20508;-74
2024/04/03 13:15:05;;;;;;;18.70;17.70;;;;;;;;;;5013014;28;20449;-75
2024/04/03 13:17:32;;;;;;;17.80;17.00;;;;;;;;;;5012817;28;20492;-73
2024/04/03 13:19:58;;;;;;;17.63;16.83;;;;;;;;;;5011876;28;20464;-74
2024/04/03 13:22:31;;;;;;;16.90;16.10;;;;;;;;;;5012778;28;20448;-75
2024/04/03 13:24:58;;;;;;;18.73;17.73;;;;;;;;;;5012422;28;20560;-74
2024/04/03 13:27:25;;;;;;;17.37;16.40;;;;;;;;;;5012626;28;20431;-74
2024/04/03 13:29:51;;;;;;;16.30;15.60;;;;;;;;;;5012055;28;20434;-75
2024/04/03 13:32:18;;;;;;;16.70;15.87;;;;;;;;;;5012908;28;20441;-75
2024/04/03 13:34:45;;;;;;;25.40;23.50;;;;;;;;;;5012968;28;20543;-74
2024/04/03 13:37:11;;;;;;;17.27;16.40;;;;;;;;;;5012070;28;20837;-76
2024/04/03 13:39:39;;;;;;;16.60;15.90;;;;;;;;;;5012448;28;20921;-73
2024/04/03 13:42:07;;;;;;;17.17;16.37;;;;;;;;;;5011871;28;20464;-73
2024/04/03 13:44:33;;;;;;;17.10;16.30;;;;;;;;;;5012440;28;20581;-75
2024/04/03 13:47:00;;;;;;;17.50;16.67;;;;;;;;;;5029871;28;20469;-73
2024/04/03 13:49:28;;;;;;;18.07;17.17;;;;;;;;;;5032123;28;20441;-74
2024/04/03 13:51:55;;;;;;;18.57;17.57;;;;;;;;;;5031500;28;20462;-74
2024/04/03 13:54:21;;;;;;;18.40;17.60;;;;;;;;;;5031821;28;20947;-74
2024/04/03 13:56:49;;;;;;;18.10;17.20;;;;;;;;;;5032317;28;20502;-73
2024/04/03 13:59:18;;;;;;;17.90;17.00;;;;;;;;;;5031841;28;21126;-73
2024/04/03 14:01:46;;;;;;;17.03;16.33;;;;;;;;;;5031741;28;20928;-74
2024/04/03 14:04:12;;;;;;;16.03;15.10;;;;;;;;;;5030963;28;20819;-74
2024/04/03 14:06:40;;;;;;;16.40;15.70;;;;;;;;;;5032015;28;20454;-73
2024/04/03 14:09:07;;;;;;;15.53;14.83;;;;;;;;;;5031465;28;20448;-73
2024/04/03 14:11:35;;;;;;;16.33;15.63;;;;;;;;;;5031503;28;20534;-74
2024/04/03 14:14:04;;;;;;;16.40;15.70;;;;;;;;;;5032119;28;20491;-73
2024/04/03 14:16:33;;;;;;;16.83;16.03;;;;;;;;;;5031216;28;20794;-74
2024/04/03 14:18:59;;;;;;;17.77;16.87;;;;;;;;;;5031438;28;20933;-73